Список аэропортов
Фактическая погода:

18 октября, 10:30
Температура: +13°C (+11.7*)
Ветер: западный 4 м/с
Давление: *767 мм
Без существ. явл.
Время (МСК)Темп. СВетерВлажностьДавлениеОблачностьОсадки
09:00+7ЮЗ, 3 м/с99%1025 гПаоблачно
10:00+8Ю, 3 м/с96%1024 гПаоблачно
11:00+11Ю, 3 м/с90%1024 гПаясно
12:00+13ЮЗ, 4 м/с83%1023 гПаясно
13:00+15ЮЗ, 4 м/с72%1023 гПаясно
14:00+16ЮЗ, 4 м/с65%1023 гПаясно
15:00+16ЮЗ, 4 м/с63%1022 гПаясно
16:00+15ЮЗ, 4 м/с67%1021 гПаясно
17:00+14Ю, 3 м/с74%1021 гПаясно
18:00+12Ю, 3 м/с83%1021 гПаясно
19:00+11ЮЗ, 3 м/с86%1021 гПаясно
20:00+11ЮЗ, 3 м/с89%1021 гПаясно
21:00+10ЮЗ, 3 м/с93%1021 гПаясно
22:00+10Ю, 3 м/с94%1020 гПаясно
23:00+9ЮЗ, 3 м/с94%1020 гПаясно
19 октября
00:00+9Ю, 3 м/с95%1020 гПаясно
01:00+8Ю, 3 м/с95%1020 гПаясно
02:00+8Ю, 3 м/с96%1019 гПаясно
03:00+8Ю, 3 м/с96%1019 гПамалооблачно
04:00+8ЮЗ, 3 м/с97%1018 гПамалооблачно
05:00+8Ю, 3 м/с96%1018 гПаясно
06:00+8Ю, 4 м/с96%1018 гПаясно
07:00+8ЮЗ, 3 м/с97%1018 гПамалооблачно
08:00+8Ю, 3 м/с97%1017 гПамалооблачно
09:00+9Ю, 3 м/с95%1017 гПас прояснениямисл. дождь
10:00+10Ю, 3 м/с92%1016 гПас прояснениямисл. дождь
11:00+12Ю, 3 м/с89%1016 гПамалооблачно
12:00+14ЮЗ, 3 м/с81%1015 гПаясно
13:00+16ЮЗ, 4 м/с73%1015 гПамалооблачно
14:00+16ЮЗ, 4 м/с71%1015 гПаоблачносл. дождь
15:00+16ЮЗ, 4 м/с71%1015 гПаоблачно
16:00+16З, 4 м/с67%1015 гПас прояснениями
17:00+14СЗ, 4 м/с69%1015 гПаоблачно
18:00+11СЗ, 5 м/с81%1016 гПаоблачно
19:00+11СЗ, 4 м/с85%1017 гПаоблачно
20:00+11З, 2 м/с86%1017 гПаоблачно
21:00+10З, 3 м/с84%1017 гПаоблачно
22:00+10СЗ, 5 м/с68%1017 гПаоблачно
23:00+8СЗ, 4 м/с75%1018 гПамалооблачно
20 октября
00:00+7З, 2 м/с82%1018 гПас прояснениями
01:00+5З, 3 м/с90%1019 гПаясно
02:00+4З, 2 м/с93%1019 гПаясно
03:00+3З, 2 м/с97%1019 гПаясно
04:00+2З, 2 м/с98%1019 гПамалооблачно
05:00+2ЮЗ, 2 м/с98%1019 гПамалооблачно
06:00+1ЮЗ, 2 м/с99%1020 гПас прояснениями
07:00+1З, 2 м/с98%1020 гПас прояснениями
08:00+1ЮЗ, 2 м/с99%1020 гПас прояснениями
09:00+2З, 2 м/с93%1020 гПамалооблачно